Big Sky, Montana
Current Conditions -  °F | °C
As of 2:56 AM on Tuesday 27 Jan 2015 (Local Time) from KBZN Reporting Station
Clear Clear  
Wind Chill: 27°   Ceiling: Unl
Heat Index: 27°   Visibility: 10mi
Dew Point: 24°   Wind: 3mph
Humidity: 89%   Direction: 180°S
Pressure: 30.07"   Gusts: NA
Location:  45.29°N, 111.3°W
Report Text: KBZN 270956Z AUTO 18003KT 10SM CLR M03/M04 A3007 RMK AO2 SLP196 T10281044
Loading
Personal Weather Stations






























Interactive Weather Map New forecast layout! Learn more

10-Day Weather Forecast

Advertisements
Track Severe Weather on mobile